Time;durP1;ratioP1;P1;durP2;ratioP2;P2;SDS_P1;SDS_P2;PMS_P1;PMS_P2;Temp;Humidity;BMP_temperature;BMP_pressure;BME280_temperature;BME280_humidity;BME280_pressure;Samples;Min_cycle;Max_cycle;Signal;HPM_P1;HPM_P2
2023/04/13 00:01:18;;;;;;;3.72;2.65;;;;;;;;;;10411368;28;20033;-52
2023/04/13 00:06:19;;;;;;;2.92;2.35;;;;;;;;;;10412903;28;20033;-52
2023/04/13 00:11:19;;;;;;;5.53;2.78;;;;;;;;;;10411903;28;20025;-50
2023/04/13 00:16:21;;;;;;;4.32;2.75;;;;;;;;;;10410488;28;20029;-54
2023/04/13 00:21:22;;;;;;;4.15;2.80;;;;;;;;;;10411046;28;20052;-51
2023/04/13 00:26:24;;;;;;;3.40;2.40;;;;;;;;;;10398299;28;20030;-50
2023/04/13 00:31:25;;;;;;;3.58;2.53;;;;;;;;;;10384582;28;20030;-50
2023/04/13 00:36:26;;;;;;;3.90;2.65;;;;;;;;;;10397705;28;20569;-51
2023/04/13 00:41:27;;;;;;;2.83;2.38;;;;;;;;;;10411454;28;20041;-52
2023/04/13 00:46:28;;;;;;;4.50;2.78;;;;;;;;;;10384627;28;20068;-50
2023/04/13 00:51:31;;;;;;;4.30;2.72;;;;;;;;;;10409816;28;20052;-52
2023/04/13 00:56:33;;;;;;;4.78;3.03;;;;;;;;;;10384462;28;20037;-51
2023/04/13 01:01:34;;;;;;;4.30;3.05;;;;;;;;;;10408016;28;20169;-52
2023/04/13 01:06:40;;;;;;;4.55;2.95;;;;;;;;;;10386673;28;20117;-52
2023/04/13 01:12:08;;;;;;;4.57;2.47;;;;;;;;;;10396593;28;20053;-52
2023/04/13 01:17:31;;;;;;;5.15;2.80;;;;;;;;;;10380320;28;20025;-51
2023/04/13 01:22:34;;;;;;;6.68;2.60;;;;;;;;;;10371930;28;20030;-50
2023/04/13 01:27:49;;;;;;;4.15;2.80;;;;;;;;;;10395456;28;20564;-52
2023/04/13 01:32:51;;;;;;;4.38;2.40;;;;;;;;;;10383167;28;20034;-50
2023/04/13 01:37:52;;;;;;;7.13;3.10;;;;;;;;;;10394735;28;20107;-52
2023/04/13 01:42:53;;;;;;;4.10;2.78;;;;;;;;;;10393942;28;20176;-51
2023/04/13 01:48:05;;;;;;;4.03;3.00;;;;;;;;;;10395074;28;20025;-52
2023/04/13 01:53:11;;;;;;;3.70;2.88;;;;;;;;;;10408025;28;20053;-51
2023/04/13 01:58:13;;;;;;;3.58;2.92;;;;;;;;;;10393877;28;20108;-51
2023/04/13 02:03:15;;;;;;;3.28;2.90;;;;;;;;;;10395693;28;20050;-51
2023/04/13 02:08:17;;;;;;;3.45;2.80;;;;;;;;;;10370016;28;20034;-51
2023/04/13 02:13:17;;;;;;;4.13;3.30;;;;;;;;;;10364022;28;20036;-53
2023/04/13 02:18:18;;;;;;;5.45;2.80;;;;;;;;;;10376189;28;20061;-52
2023/04/13 02:23:19;;;;;;;2.85;2.50;;;;;;;;;;10377364;28;20032;-51
2023/04/13 02:28:19;;;;;;;3.30;2.95;;;;;;;;;;10369495;28;20053;-52
2023/04/13 02:33:20;;;;;;;4.25;2.97;;;;;;;;;;10358972;28;20169;-52
2023/04/13 02:38:21;;;;;;;3.05;2.53;;;;;;;;;;10369378;28;20044;-52
2023/04/13 02:43:22;;;;;;;3.90;2.85;;;;;;;;;;10368798;28;20052;-50
2023/04/13 02:48:22;;;;;;;3.75;2.50;;;;;;;;;;10370407;28;20034;-52
2023/04/13 02:53:24;;;;;;;6.63;2.90;;;;;;;;;;10355501;28;20141;-57
2023/04/13 02:58:24;;;;;;;5.30;2.70;;;;;;;;;;10355907;28;20065;-51
2023/04/13 03:03:25;;;;;;;4.00;2.75;;;;;;;;;;10356302;28;20038;-52
2023/04/13 03:08:26;;;;;;;3.08;2.70;;;;;;;;;;10369972;28;20069;-52
2023/04/13 03:13:26;;;;;;;3.33;2.80;;;;;;;;;;10376978;28;20022;-52
2023/04/13 03:18:27;;;;;;;2.90;2.38;;;;;;;;;;10375643;28;20014;-52
2023/04/13 03:23:27;;;;;;;2.60;2.40;;;;;;;;;;10369154;28;20048;-52
2023/04/13 03:28:28;;;;;;;3.65;3.00;;;;;;;;;;10374520;28;20045;-52
2023/04/13 03:33:29;;;;;;;6.05;2.47;;;;;;;;;;10364054;28;20474;-50
2023/04/13 03:38:29;;;;;;;4.43;2.63;;;;;;;;;;10375902;28;20056;-53
2023/04/13 03:43:30;;;;;;;6.78;3.08;;;;;;;;;;10361834;28;20445;-52
2023/04/13 03:48:30;;;;;;;2.88;2.65;;;;;;;;;;10362926;28;20362;-56
2023/04/13 03:53:36;;;;;;;2.92;2.72;;;;;;;;;;10363113;28;20494;-52
2023/04/13 03:58:37;;;;;;;3.63;2.85;;;;;;;;;;10361477;28;20041;-52
2023/04/13 04:03:38;;;;;;;3.78;2.60;;;;;;;;;;10349924;28;20384;-51
2023/04/13 04:08:38;;;;;;;3.92;2.78;;;;;;;;;;10362007;28;20029;-52
2023/04/13 04:13:39;;;;;;;4.63;2.63;;;;;;;;;;10361985;28;20032;-52
2023/04/13 04:18:40;;;;;;;2.75;2.47;;;;;;;;;;10372373;28;20182;-52
2023/04/13 04:23:40;;;;;;;4.55;2.60;;;;;;;;;;10375051;28;20406;-51
2023/04/13 04:28:41;;;;;;;3.53;2.42;;;;;;;;;;10364352;28;20029;-52
2023/04/13 04:33:42;;;;;;;4.10;2.80;;;;;;;;;;10373608;28;20079;-51
2023/04/13 04:38:43;;;;;;;3.13;2.58;;;;;;;;;;10373211;28;20037;-54
2023/04/13 04:43:44;;;;;;;3.90;2.58;;;;;;;;;;10372546;28;20032;-53
2023/04/13 04:48:46;;;;;;;5.88;2.83;;;;;;;;;;10373273;28;20440;-52
2023/04/13 04:53:46;;;;;;;3.65;2.90;;;;;;;;;;10361437;28;20209;-51
2023/04/13 04:58:47;;;;;;;2.70;2.50;;;;;;;;;;10370509;28;20204;-56
2023/04/13 05:03:48;;;;;;;2.47;2.20;;;;;;;;;;10367575;28;20030;-51
2023/04/13 05:08:48;;;;;;;8.50;2.58;;;;;;;;;;10371654;28;20041;-50
2023/04/13 05:13:49;;;;;;;4.43;2.83;;;;;;;;;;10369439;28;20030;-55
2023/04/13 05:18:50;;;;;;;3.08;2.78;;;;;;;;;;10371304;28;20042;-53
2023/04/13 05:23:50;;;;;;;2.97;2.60;;;;;;;;;;10356203;28;20034;-53
2023/04/13 05:28:51;;;;;;;3.72;2.83;;;;;;;;;;10371082;28;20025;-53
2023/04/13 05:33:52;;;;;;;3.28;2.80;;;;;;;;;;10369728;28;20026;-53
2023/04/13 05:38:52;;;;;;;7.68;2.63;;;;;;;;;;10366206;28;20445;-49
2023/04/13 05:43:53;;;;;;;3.97;2.40;;;;;;;;;;10369036;28;20092;-52
2023/04/13 05:48:53;;;;;;;11.52;2.70;;;;;;;;;;10367569;28;20041;-51
2023/04/13 05:53:54;;;;;;;2.80;2.53;;;;;;;;;;10369209;28;20041;-53
2023/04/13 05:58:55;;;;;;;3.17;2.58;;;;;;;;;;10367855;28;20393;-58
2023/04/13 06:03:56;;;;;;;3.08;2.60;;;;;;;;;;10367077;28;20030;-61
2023/04/13 06:08:56;;;;;;;5.25;2.72;;;;;;;;;;10362154;28;20405;-56
2023/04/13 06:13:57;;;;;;;5.30;3.10;;;;;;;;;;10366231;28;20029;-53
2023/04/13 06:18:58;;;;;;;12.35;2.95;;;;;;;;;;10368783;28;20022;-51
2023/04/13 06:23:59;;;;;;;4.60;2.80;;;;;;;;;;10370579;28;20169;-52
2023/04/13 06:29:01;;;;;;;17.58;3.67;;;;;;;;;;10369439;28;20100;-52
2023/04/13 06:34:01;;;;;;;5.50;3.58;;;;;;;;;;10364272;28;20027;-49
2023/04/13 06:39:03;;;;;;;11.23;3.55;;;;;;;;;;10361372;28;20377;-52
2023/04/13 06:44:04;;;;;;;6.47;3.60;;;;;;;;;;10368070;28;20481;-52
2023/04/13 06:49:05;;;;;;;4.70;3.38;;;;;;;;;;10368611;28;20261;-52
2023/04/13 06:54:05;;;;;;;6.75;3.17;;;;;;;;;;10367126;28;20284;-55
2023/04/13 06:59:06;;;;;;;10.88;3.25;;;;;;;;;;10358655;28;20034;-51
2023/04/13 07:04:06;;;;;;;6.65;3.55;;;;;;;;;;10381143;28;20529;-54
2023/04/13 07:09:07;;;;;;;13.30;3.38;;;;;;;;;;10368236;28;20034;-49
2023/04/13 07:14:07;;;;;;;6.65;3.22;;;;;;;;;;10366946;28;20021;-60
2023/04/13 07:19:08;;;;;;;4.05;2.95;;;;;;;;;;10366670;28;20022;-51
2023/04/13 07:24:09;;;;;;;7.05;3.35;;;;;;;;;;10373418;28;20200;-54
2023/04/13 07:29:12;;;;;;;8.45;3.13;;;;;;;;;;10355618;28;20037;-52
2023/04/13 07:34:13;;;;;;;6.47;3.20;;;;;;;;;;10367044;28;20050;-51
2023/04/13 07:39:14;;;;;;;3.10;2.72;;;;;;;;;;10354675;28;20522;-57
2023/04/13 07:44:14;;;;;;;4.80;3.40;;;;;;;;;;10355272;28;20030;-56
2023/04/13 07:49:15;;;;;;;7.18;3.13;;;;;;;;;;10342430;28;20037;-51
2023/04/13 07:54:16;;;;;;;4.22;3.10;;;;;;;;;;10356558;28;20050;-51
2023/04/13 07:59:16;;;;;;;4.80;2.92;;;;;;;;;;10372441;28;20021;-60
2023/04/13 08:04:17;;;;;;;4.57;3.17;;;;;;;;;;10363844;28;20037;-60
2023/04/13 08:09:18;;;;;;;4.57;3.10;;;;;;;;;;10361598;28;20023;-58
2023/04/13 08:14:18;;;;;;;4.75;2.92;;;;;;;;;;10363275;28;20084;-52
2023/04/13 08:19:19;;;;;;;3.38;2.83;;;;;;;;;;10374112;28;20030;-59
2023/04/13 08:24:20;;;;;;;4.28;2.90;;;;;;;;;;10365052;28;20061;-58
2023/04/13 08:29:22;;;;;;;5.05;3.20;;;;;;;;;;10347515;28;20030;-57
2023/04/13 08:34:23;;;;;;;5.25;2.78;;;;;;;;;;10373992;28;20077;-58
2023/04/13 08:39:24;;;;;;;5.80;2.92;;;;;;;;;;10347142;28;20056;-56
2023/04/13 08:44:25;;;;;;;5.95;3.15;;;;;;;;;;10367942;28;20045;-56
2023/04/13 08:49:27;;;;;;;3.03;2.70;;;;;;;;;;10353876;28;20061;-55
2023/04/13 08:54:28;;;;;;;4.15;2.70;;;;;;;;;;10360897;28;20165;-56
2023/04/13 08:59:29;;;;;;;4.63;2.67;;;;;;;;;;10372899;28;20034;-51
2023/04/13 09:04:34;;;;;;;3.55;3.25;;;;;;;;;;10346692;28;20050;-56
2023/04/13 09:09:37;;;;;;;4.13;3.20;;;;;;;;;;10372118;28;20389;-51
2023/04/13 09:14:39;;;;;;;8.60;3.10;;;;;;;;;;10369901;28;20474;-51
2023/04/13 09:19:40;;;;;;;4.32;2.85;;;;;;;;;;10375128;28;20209;-55
2023/04/13 09:24:41;;;;;;;3.95;2.53;;;;;;;;;;10362299;28;20035;-52
2023/04/13 09:29:51;;;;;;;4.55;2.53;;;;;;;;;;10370526;28;20634;-52
2023/04/13 09:35:07;;;;;;;4.95;2.80;;;;;;;;;;10371773;28;20113;-50
2023/04/13 09:40:15;;;;;;;5.60;3.20;;;;;;;;;;10396776;28;20033;-52
2023/04/13 09:45:15;;;;;;;3.28;2.47;;;;;;;;;;10359310;28;20116;-53
2023/04/13 09:50:20;;;;;;;5.15;3.20;;;;;;;;;;10369414;28;20516;-58
2023/04/13 09:55:21;;;;;;;4.18;2.83;;;;;;;;;;10357428;28;20081;-53
2023/04/13 10:00:22;;;;;;;3.35;2.78;;;;;;;;;;10386132;28;20101;-51
2023/04/13 10:05:25;;;;;;;3.33;2.50;;;;;;;;;;10358455;28;20470;-49
2023/04/13 10:10:26;;;;;;;4.10;2.70;;;;;;;;;;10370345;28;20490;-55
2023/04/13 10:15:57;;;;;;;3.17;2.70;;;;;;;;;;10356576;28;20034;-55
2023/04/13 10:20:59;;;;;;;4.63;2.88;;;;;;;;;;10367628;28;20162;-52
2023/04/13 10:26:00;;;;;;;3.97;2.42;;;;;;;;;;10349718;28;20038;-53
2023/04/13 10:31:04;;;;;;;5.40;2.70;;;;;;;;;;10364275;28;20386;-52
2023/04/13 10:36:05;;;;;;;4.75;2.88;;;;;;;;;;10381488;28;20462;-59
2023/04/13 10:41:06;;;;;;;5.50;2.90;;;;;;;;;;10356583;28;20029;-56
2023/04/13 10:46:14;;;;;;;3.47;2.55;;;;;;;;;;10368230;28;20366;-52
2023/04/13 10:51:14;;;;;;;3.33;2.43;;;;;;;;;;10356885;28;20486;-58
2023/04/13 10:56:16;;;;;;;2.80;2.50;;;;;;;;;;10368331;28;20029;-49
2023/04/13 11:01:17;;;;;;;5.50;2.65;;;;;;;;;;10369004;28;20018;-47
2023/04/13 11:06:18;;;;;;;3.00;2.70;;;;;;;;;;10354354;28;20060;-49
2023/04/13 11:11:24;;;;;;;3.65;3.00;;;;;;;;;;10364877;28;20112;-49
2023/04/13 11:16:25;;;;;;;3.53;2.55;;;;;;;;;;10360024;28;20033;-51
2023/04/13 11:21:25;;;;;;;2.92;2.35;;;;;;;;;;10371068;28;20063;-49
2023/04/13 11:26:34;;;;;;;3.53;2.30;;;;;;;;;;10352256;28;20042;-51
2023/04/13 11:31:39;;;;;;;3.65;2.55;;;;;;;;;;10373070;28;20023;-55
2023/04/13 11:36:41;;;;;;;5.88;2.20;;;;;;;;;;10363434;28;20553;-49
2023/04/13 11:41:42;;;;;;;2.47;2.20;;;;;;;;;;10350507;28;20026;-53
2023/04/13 11:46:43;;;;;;;3.65;2.20;;;;;;;;;;10364258;28;20486;-49
2023/04/13 11:51:43;;;;;;;2.60;2.13;;;;;;;;;;10371174;28;20045;-55
2023/04/13 11:56:45;;;;;;;2.47;2.28;;;;;;;;;;10373448;28;20053;-52
2023/04/13 12:01:48;;;;;;;4.50;2.35;;;;;;;;;;10360366;28;20510;-49
2023/04/13 12:06:49;;;;;;;4.53;2.45;;;;;;;;;;10374201;28;20037;-51
2023/04/13 12:11:52;;;;;;;3.38;2.20;;;;;;;;;;10373179;28;20041;-53
2023/04/13 12:16:55;;;;;;;5.15;2.40;;;;;;;;;;10365087;28;20022;-59
2023/04/13 12:21:56;;;;;;;3.40;2.50;;;;;;;;;;10373348;28;20033;-59
2023/04/13 12:27:02;;;;;;;3.75;2.60;;;;;;;;;;10361224;28;20049;-51
2023/04/13 12:32:02;;;;;;;5.53;2.20;;;;;;;;;;10381962;28;20041;-50
2023/04/13 12:37:03;;;;;;;3.08;2.28;;;;;;;;;;10358800;28;20045;-58
2023/04/13 12:42:04;;;;;;;2.53;2.05;;;;;;;;;;10370545;28;20390;-49
2023/04/13 12:47:05;;;;;;;5.07;2.08;;;;;;;;;;10370415;28;20026;-52
2023/04/13 12:52:06;;;;;;;2.72;1.83;;;;;;;;;;10360000;28;20100;-54
2023/04/13 12:57:06;;;;;;;2.42;2.22;;;;;;;;;;10365879;28;20371;-55
2023/04/13 13:02:07;;;;;;;4.03;1.95;;;;;;;;;;10369750;28;20026;-50
2023/04/13 13:07:08;;;;;;;5.60;2.03;;;;;;;;;;10356456;28;20034;-50
2023/04/13 13:12:08;;;;;;;2.92;1.90;;;;;;;;;;10346873;28;20037;-51
2023/04/13 13:17:09;;;;;;;2.55;1.70;;;;;;;;;;10349342;28;20045;-55
2023/04/13 13:22:09;;;;;;;2.58;1.80;;;;;;;;;;10364493;28;20030;-50
2023/04/13 13:27:10;;;;;;;2.80;2.20;;;;;;;;;;10374601;28;20038;-50
2023/04/13 13:32:11;;;;;;;2.33;1.88;;;;;;;;;;10370018;28;20030;-57
2023/04/13 13:37:11;;;;;;;5.32;1.95;;;;;;;;;;10371473;28;20037;-50
2023/04/13 13:42:12;;;;;;;3.92;1.95;;;;;;;;;;10363733;28;20034;-55
2023/04/13 13:47:12;;;;;;;7.68;1.73;;;;;;;;;;10358202;28;20041;-52
2023/04/13 13:52:13;;;;;;;6.35;1.85;;;;;;;;;;10362379;28;20039;-55
2023/04/13 13:57:13;;;;;;;2.20;1.75;;;;;;;;;;10374522;28;20045;-58
2023/04/13 14:02:14;;;;;;;2.97;1.80;;;;;;;;;;10356412;28;20026;-53
2023/04/13 14:07:15;;;;;;;14.15;2.15;;;;;;;;;;10363068;28;20034;-60
2023/04/13 14:12:15;;;;;;;10.00;2.00;;;;;;;;;;10362541;28;20029;-51
2023/04/13 14:17:16;;;;;;;4.95;2.13;;;;;;;;;;10356478;28;20026;-51
2023/04/13 14:22:16;;;;;;;3.90;1.95;;;;;;;;;;10366732;28;20045;-50
2023/04/13 14:27:17;;;;;;;9.05;1.95;;;;;;;;;;10377050;28;20026;-54
2023/04/13 14:32:18;;;;;;;7.53;2.08;;;;;;;;;;10367910;28;20037;-51
2023/04/13 14:37:20;;;;;;;14.38;2.58;;;;;;;;;;10367146;28;20036;-52
2023/04/13 14:42:23;;;;;;;8.15;1.95;;;;;;;;;;10361674;28;20026;-50
2023/04/13 14:47:23;;;;;;;12.32;2.40;;;;;;;;;;10360142;28;20030;-51
2023/04/13 14:52:24;;;;;;;5.50;1.73;;;;;;;;;;10381550;23;20049;-66
2023/04/13 14:57:26;;;;;;;9.15;2.25;;;;;;;;;;10400048;28;20048;-59
2023/04/13 15:02:27;;;;;;;5.82;2.20;;;;;;;;;;10390234;28;20120;-59
2023/04/13 15:07:28;;;;;;;13.48;2.15;;;;;;;;;;10380742;28;20500;-65
2023/04/13 15:12:28;;;;;;;3.72;1.80;;;;;;;;;;10382099;28;20096;-60
2023/04/13 15:17:29;;;;;;;6.20;1.60;;;;;;;;;;10373965;28;20137;-59
2023/04/13 15:22:30;;;;;;;5.75;1.98;;;;;;;;;;10390037;28;20026;-60
2023/04/13 15:27:30;;;;;;;20.33;2.20;;;;;;;;;;10378256;28;20029;-60
2023/04/13 15:32:33;;;;;;;9.18;2.95;;;;;;;;;;10386486;28;20087;-60
2023/04/13 15:37:33;;;;;;;5.47;1.90;;;;;;;;;;10385921;28;20235;-59
2023/04/13 15:42:34;;;;;;;8.93;2.40;;;;;;;;;;10392011;28;20567;-60
2023/04/13 15:47:35;;;;;;;7.05;2.17;;;;;;;;;;10402369;28;20040;-64
2023/04/13 15:52:39;;;;;;;7.07;2.13;;;;;;;;;;10395320;28;20056;-59
2023/04/13 15:57:39;;;;;;;4.28;2.10;;;;;;;;;;10401182;28;20470;-59
2023/04/13 16:02:40;;;;;;;8.70;2.72;;;;;;;;;;10389744;28;20083;-59
2023/04/13 16:07:40;;;;;;;6.10;2.00;;;;;;;;;;10398253;28;20397;-60
2023/04/13 16:12:42;;;;;;;3.28;2.20;;;;;;;;;;10401483;28;20480;-59
2023/04/13 16:17:44;;;;;;;7.35;2.22;;;;;;;;;;10407816;28;20859;-67
2023/04/13 16:22:47;;;;;;;4.10;2.10;;;;;;;;;;10404843;28;20064;-59
2023/04/13 16:27:48;;;;;;;3.60;1.92;;;;;;;;;;10400483;28;20040;-59
2023/04/13 16:32:49;;;;;;;5.05;2.13;;;;;;;;;;10406772;28;20396;-62
2023/04/13 16:37:50;;;;;;;5.80;2.22;;;;;;;;;;10412209;28;20026;-63
2023/04/13 16:42:50;;;;;;;4.93;2.03;;;;;;;;;;10399928;28;20625;-61
2023/04/13 16:47:54;;;;;;;5.97;1.70;;;;;;;;;;10389800;28;20091;-61
2023/04/13 16:52:55;;;;;;;5.57;1.80;;;;;;;;;;10386635;28;20091;-62
2023/04/13 16:57:56;;;;;;;4.97;1.90;;;;;;;;;;10381455;28;20029;-62
2023/04/13 17:02:57;;;;;;;2.08;1.63;;;;;;;;;;10376670;28;20038;-63
2023/04/13 17:07:57;;;;;;;4.13;1.73;;;;;;;;;;10398969;28;20397;-62
2023/04/13 17:12:58;;;;;;;16.10;1.75;;;;;;;;;;10408711;28;20132;-70
2023/04/13 17:17:58;;;;;;;4.45;1.55;;;;;;;;;;10405980;28;20037;-61
2023/04/13 17:22:59;;;;;;;5.28;1.90;;;;;;;;;;10389936;28;20084;-62
2023/04/13 17:28:00;;;;;;;2.75;1.60;;;;;;;;;;10407625;28;20025;-62
2023/04/13 17:33:00;;;;;;;3.83;1.70;;;;;;;;;;10409346;28;20037;-62
2023/04/13 17:38:01;;;;;;;2.95;1.75;;;;;;;;;;10410057;28;20034;-62
2023/04/13 17:43:01;;;;;;;4.93;1.50;;;;;;;;;;10409299;28;20017;-61
2023/04/13 17:48:03;;;;;;;3.22;1.77;;;;;;;;;;10409651;28;20378;-61
2023/04/13 17:53:04;;;;;;;6.35;1.65;;;;;;;;;;10401366;28;20048;-61
2023/04/13 17:58:04;;;;;;;7.88;1.80;;;;;;;;;;10391597;28;20036;-61
2023/04/13 18:03:06;;;;;;;6.68;1.70;;;;;;;;;;10375444;28;20026;-61
2023/04/13 18:08:07;;;;;;;4.85;1.67;;;;;;;;;;10383534;28;20037;-62
2023/04/13 18:13:08;;;;;;;2.47;1.70;;;;;;;;;;10396031;28;20033;-61
2023/04/13 18:18:08;;;;;;;7.38;3.03;;;;;;;;;;10389130;28;20095;-61
2023/04/13 18:23:09;;;;;;;4.22;1.80;;;;;;;;;;10409565;28;20068;-61
2023/04/13 18:28:09;;;;;;;3.95;2.17;;;;;;;;;;10396653;28;20095;-61
2023/04/13 18:33:11;;;;;;;6.00;1.83;;;;;;;;;;10403404;28;20033;-66
2023/04/13 18:38:12;;;;;;;3.35;1.70;;;;;;;;;;10409106;28;20037;-61
2023/04/13 18:43:12;;;;;;;4.93;1.80;;;;;;;;;;10402765;28;20489;-61
2023/04/13 18:48:13;;;;;;;2.10;1.70;;;;;;;;;;10406972;28;20157;-60
2023/04/13 18:53:13;;;;;;;6.32;2.15;;;;;;;;;;10384607;28;20057;-59
2023/04/13 18:58:16;;;;;;;5.25;1.60;;;;;;;;;;10404986;28;20036;-60
2023/04/13 19:03:16;;;;;;;1.77;1.50;;;;;;;;;;10405174;28;20409;-60
2023/04/13 19:08:17;;;;;;;3.78;1.63;;;;;;;;;;10394084;28;20033;-60
2023/04/13 19:13:18;;;;;;;5.63;1.42;;;;;;;;;;10393137;28;20033;-60
2023/04/13 19:18:18;;;;;;;3.17;1.55;;;;;;;;;;10405397;28;20030;-66
2023/04/13 19:23:19;;;;;;;3.22;1.33;;;;;;;;;;10394845;28;20042;-60
2023/04/13 19:28:20;;;;;;;8.07;2.13;;;;;;;;;;10380789;28;20042;-60
2023/04/13 19:33:20;;;;;;;7.05;1.52;;;;;;;;;;10378456;28;20033;-59
2023/04/13 19:38:21;;;;;;;1.85;1.30;;;;;;;;;;10373474;28;20037;-60
2023/04/13 19:43:23;;;;;;;2.70;1.10;;;;;;;;;;10375559;28;20038;-70
2023/04/13 19:48:26;;;;;;;3.03;1.58;;;;;;;;;;10374282;28;20025;-60
2023/04/13 19:53:27;;;;;;;2.65;1.40;;;;;;;;;;10385086;28;20061;-60
2023/04/13 19:58:27;;;;;;;3.33;1.35;;;;;;;;;;10401567;28;20087;-61
2023/04/13 20:03:29;;;;;;;4.65;1.60;;;;;;;;;;10411302;28;20529;-71
2023/04/13 20:08:30;;;;;;;2.35;1.05;;;;;;;;;;10413145;28;20034;-60
2023/04/13 20:13:31;;;;;;;3.83;1.48;;;;;;;;;;10406841;28;20123;-59
2023/04/13 20:18:32;;;;;;;14.23;3.03;;;;;;;;;;10408436;28;20084;-61
2023/04/13 20:23:34;;;;;;;10.05;2.13;;;;;;;;;;10405952;28;20038;-61
2023/04/13 20:28:35;;;;;;;5.43;2.00;;;;;;;;;;10393517;28;20074;-60
2023/04/13 20:33:35;;;;;;;5.80;1.88;;;;;;;;;;10383957;28;20076;-60
2023/04/13 20:38:37;;;;;;;13.65;3.15;;;;;;;;;;10384110;28;20091;-59
2023/04/13 20:43:38;;;;;;;16.98;2.40;;;;;;;;;;10412698;28;20041;-60
2023/04/13 20:48:40;;;;;;;19.70;2.13;;;;;;;;;;10412016;28;20038;-59
2023/04/13 20:53:41;;;;;;;7.88;2.22;;;;;;;;;;10410903;28;20049;-60
2023/04/13 20:58:45;;;;;;;6.18;2.35;;;;;;;;;;10414464;28;20083;-59
2023/04/13 21:03:46;;;;;;;9.77;2.08;;;;;;;;;;10409714;28;20034;-68
2023/04/13 21:08:47;;;;;;;6.60;2.08;;;;;;;;;;10409693;28;20452;-70
2023/04/13 21:13:48;;;;;;;2.60;1.70;;;;;;;;;;10409265;28;20539;-60
2023/04/13 21:18:48;;;;;;;8.07;1.88;;;;;;;;;;10395408;28;20489;-61
2023/04/13 21:23:49;;;;;;;4.75;2.03;;;;;;;;;;10404297;28;20021;-60
2023/04/13 21:28:52;;;;;;;5.70;2.08;;;;;;;;;;10397404;28;20895;-60
2023/04/13 21:33:54;;;;;;;5.78;1.92;;;;;;;;;;10404548;28;20056;-61
2023/04/13 21:38:54;;;;;;;8.20;2.50;;;;;;;;;;10407469;28;20029;-60
2023/04/13 21:43:55;;;;;;;3.92;1.88;;;;;;;;;;10399621;28;20034;-65
2023/04/13 21:48:56;;;;;;;6.55;2.20;;;;;;;;;;10407694;28;20026;-61
2023/04/13 21:53:56;;;;;;;4.68;1.52;;;;;;;;;;10401979;28;20038;-60
2023/04/13 21:58:57;;;;;;;8.98;2.35;;;;;;;;;;10409310;28;20033;-62
2023/04/13 22:03:57;;;;;;;10.27;1.88;;;;;;;;;;10389854;28;20107;-60
2023/04/13 22:08:58;;;;;;;4.03;1.73;;;;;;;;;;10399366;28;20041;-61
2023/04/13 22:13:59;;;;;;;4.35;2.00;;;;;;;;;;10395393;28;20026;-68
2023/04/13 22:19:00;;;;;;;5.40;2.38;;;;;;;;;;10400360;28;20497;-66
2023/04/13 22:24:00;;;;;;;5.47;2.03;;;;;;;;;;10400349;28;20026;-60
2023/04/13 22:29:01;;;;;;;6.18;1.88;;;;;;;;;;10409469;28;20033;-60
2023/04/13 22:34:01;;;;;;;7.32;2.15;;;;;;;;;;10409500;28;20188;-60
2023/04/13 22:39:02;;;;;;;7.88;1.92;;;;;;;;;;10405512;28;20025;-60
2023/04/13 22:44:03;;;;;;;4.63;2.08;;;;;;;;;;10403861;28;20048;-60
2023/04/13 22:49:04;;;;;;;6.53;1.67;;;;;;;;;;10408053;28;20029;-60
2023/04/13 22:54:05;;;;;;;2.50;1.75;;;;;;;;;;10405608;28;20064;-60
2023/04/13 22:59:06;;;;;;;8.30;2.00;;;;;;;;;;10405562;28;20021;-60
2023/04/13 23:04:06;;;;;;;6.95;1.58;;;;;;;;;;10409562;28;20473;-61
2023/04/13 23:09:07;;;;;;;3.70;1.63;;;;;;;;;;10410192;28;20022;-60
2023/04/13 23:14:07;;;;;;;7.35;1.63;;;;;;;;;;10407245;28;20044;-61
2023/04/13 23:19:08;;;;;;;5.55;2.20;;;;;;;;;;10401285;28;20022;-60
2023/04/13 23:24:09;;;;;;;6.47;1.67;;;;;;;;;;10411415;28;20021;-59
2023/04/13 23:29:09;;;;;;;6.10;1.80;;;;;;;;;;10415799;28;20397;-60
2023/04/13 23:34:10;;;;;;;7.05;1.88;;;;;;;;;;10416812;28;20052;-58
2023/04/13 23:39:11;;;;;;;5.68;1.63;;;;;;;;;;10416253;28;20032;-59
2023/04/13 23:44:12;;;;;;;6.80;1.80;;;;;;;;;;10417116;28;20465;-58
2023/04/13 23:49:12;;;;;;;4.32;1.45;;;;;;;;;;10416849;28;20029;-59
2023/04/13 23:54:13;;;;;;;3.40;1.48;;;;;;;;;;10416994;28;20056;-59
2023/04/13 23:59:14;;;;;;;9.63;1.73;;;;;;;;;;10415075;28;20037;-59
